Latest Weather Observations for Frankston

IDV60801

Issued at 3:02 pm EST Wednesday 29 June 2016 (issued every 30 minutes, with the page automatically refreshed every 10 minutes)

About weather observations | Map of weather stations | Latest weather observations for VIC | Other Formats
Station Details ID: 086371 Name: FRANKSTON AWS Lat: -38.15 Lon: 145.12 Height: 6.0 m
Data from the previous 72 hours. | See also: Recent months at Frankston
Date/Time
EST
Temp
°C
App
Temp
°C
Dew
Point
°C
Rel
Hum
%
Delta-T
°C
Wind Press
QNH
hPa
Press
MSL
hPa
Rain since
9am
mm
Dir  Spd
km/h
Gust
km/h
Spd
kts
Gust
kts
29/03:00pm 13.4 9.1 8.0 70 2.7 N 20 24 11 13 - - -
29/02:30pm 13.5 9.4 7.9 69 2.8 N 19 26 10 14 - - -
29/02:00pm 13.2 9.6 8.3 72 2.4 N 17 20 9 11 - - -
29/01:30pm 13.1 9.8 8.0 71 2.5 N 15 19 8 10 - - -
29/01:00pm 12.9 10.1 8.4 74 2.2 N 13 17 7 9 - - -
29/12:30pm 12.6 9.8 8.5 76 2.0 N 13 15 7 8 - - -
29/12:00pm 12.5 9.3 8.6 77 1.9 N 15 17 8 9 - - -
29/11:30am 12.3 9.1 8.6 78 1.8 N 15 17 8 9 - - -
29/11:00am 11.9 9.5 8.6 80 1.6 NNE 11 15 6 8 - - -
29/10:30am 11.6 9.6 8.6 82 1.5 NNE 9 11 5 6 - - -
29/10:00am 11.1 9.1 8.5 84 1.3 NNE 9 11 5 6 - - -
29/09:30am 10.7 8.6 8.3 85 1.2 NNE 9 13 5 7 - - -
29/09:00am 10.3 8.5 7.9 85 1.2 ENE 7 11 4 6 - - -
29/08:30am 9.5 7.1 7.1 85 1.1 E 9 13 5 7 - - -
29/08:00am 10.6 7.0 8.2 85 1.2 N 17 22 9 12 - - -
29/07:30am 10.6 6.6 8.2 85 1.2 N 19 22 10 12 - - -
29/07:00am 10.7 7.1 8.3 85 1.2 N 17 20 9 11 - - -
29/06:30am 10.8 7.2 8.4 85 1.2 N 17 22 9 12 - - -
29/06:00am 10.8 7.3 8.6 86 1.1 N 17 22 9 12 - - -
29/05:30am 10.9 7.0 8.7 86 1.1 N 19 24 10 13 - - -
29/05:00am 10.9 7.0 8.8 87 1.0 N 19 26 10 14 - - -
29/04:30am 10.9 7.0 8.8 87 1.0 N 19 24 10 13 - - -
29/04:00am 10.7 6.8 8.6 87 1.0 N 19 22 10 12 - - -
29/03:30am 10.9 7.0 8.7 86 1.1 N 19 22 10 12 - - -
29/03:00am 11.0 6.9 8.8 86 1.1 N 20 24 11 13 - - -
29/02:30am 11.2 7.1 8.8 85 1.2 N 20 24 11 13 - - -
29/02:00am 11.4 7.0 9.0 85 1.2 N 22 28 12 15 - - -
29/01:30am 11.5 7.7 9.1 85 1.2 N 19 24 10 13 - - -
29/01:00am 11.3 7.9 9.0 86 1.1 N 17 20 9 11 - - -
29/12:30am 11.2 7.4 8.9 86 1.1 N 19 22 10 12 - - -
29/12:00am 11.3 7.3 9.0 86 1.1 N 20 24 11 13 - - -
 
Date/Time
EST
Temp
°C
App
Temp
°C
Dew
Point
°C
Rel
Hum
%
Delta-T
°C
Wind Press
QNH
hPa
Press
MSL
hPa
Rain since
9am
mm
Dir  Spd
km/h
Gust
km/h
Spd
kts
Gust
kts
28/11:30pm 11.3 7.5 9.0 86 1.1 N 19 24 10 13 - - -
28/11:00pm 11.2 8.1 8.8 85 1.2 NNE 15 19 8 10 - - -
28/10:30pm 11.3 7.5 8.9 85 1.2 N 19 24 10 13 - - -
28/10:00pm 11.3 7.4 8.7 84 1.3 N 19 22 10 12 - - -
28/09:30pm 11.3 7.7 8.3 82 1.5 N 17 20 9 11 - - -
28/09:00pm 11.4 8.2 8.4 82 1.5 N 15 19 8 10 - - -
28/08:30pm 11.5 7.9 8.4 81 1.5 N 17 20 9 11 - - -
28/08:00pm 11.5 8.3 8.4 81 1.5 N 15 19 8 10 - - -
28/07:30pm 11.5 7.5 8.4 81 1.5 N 19 22 10 12 - - -
28/07:00pm 11.9 8.0 8.7 81 1.6 NNE 19 22 10 12 - - -
28/06:30pm 12.1 9.0 8.9 81 1.6 N 15 19 8 10 - - -
28/06:00pm 12.6 10.0 9.4 81 1.6 N 13 17 7 9 - - -
28/05:30pm 12.3 10.8 9.3 82 1.5 NNE 7 11 4 6 - - -
28/05:00pm 12.9 11.2 9.7 81 1.6 NNW 9 11 5 6 - - -
28/04:30pm 12.7 11.3 9.5 81 1.6 NW 7 9 4 5 - - -
28/04:00pm 12.9 11.4 9.2 78 1.9 NW 7 9 4 5 - - -
28/03:30pm 13.6 11.4 9.3 75 2.2 NW 11 13 6 7 - - -
28/03:00pm 12.6 11.3 9.2 80 1.7 NNW 6 9 3 5 - - -
28/02:30pm 12.8 10.9 8.9 77 2.0 NNW 9 13 5 7 - - -
28/02:00pm 13.1 10.5 9.4 78 1.9 NW 13 17 7 9 - - -
28/01:30pm 12.7 9.6 8.8 77 2.0 NNW 15 19 8 10 - - -
28/01:00pm 12.5 9.3 8.4 76 2.0 NNW 15 19 8 10 - - -
28/12:30pm 12.4 8.8 8.3 76 2.0 NNW 17 20 9 11 - - -
28/12:00pm 12.3 8.5 7.6 73 2.3 NNW 17 20 9 11 - - -
28/11:30am 12.2 8.4 7.7 74 2.2 N 17 20 9 11 - - -
28/11:00am 11.4 7.9 7.3 76 2.0 N 15 19 8 10 - - -
28/10:30am 11.1 7.2 7.0 76 2.0 N 17 19 9 10 - - -
28/10:00am 10.5 6.9 6.6 77 1.8 N 15 17 8 9 - - -
28/09:30am 10.2 6.1 6.4 77 1.8 N 17 20 9 11 - - -
28/09:00am 10.3 6.7 6.8 79 1.6 N 15 19 8 10 - - -
28/08:30am 9.7 6.3 6.1 78 1.7 NNE 13 17 7 9 - - -
28/08:00am 9.1 6.4 5.5 78 1.6 NNE 9 13 5 7 - - -
28/07:30am 9.0 6.3 5.4 78 1.6 NNE 9 13 5 7 - - -
28/07:00am 8.9 6.1 5.3 78 1.6 NNE 9 15 5 8 - - -
28/06:30am 8.6 6.2 5.2 79 1.5 NE 7 11 4 6 - - -
28/06:00am 8.4 6.2 5.2 80 1.4 NE 6 13 3 7 - - -
28/05:30am 8.3 5.6 5.4 82 1.3 NE 9 11 5 6 - - -
28/05:00am 7.3 5.0 4.6 83 1.2 ENE 6 9 3 5 - - -
28/04:30am 7.5 5.0 5.0 84 1.1 NE 7 11 4 6 - - -
28/04:00am 7.6 5.2 5.1 84 1.1 ENE 7 13 4 7 - - -
28/03:30am 7.2 4.4 5.0 86 1.0 E 9 13 5 7 - - -
28/03:00am 7.2 4.7 5.0 86 1.0 ENE 7 11 4 6 - - -
28/02:30am 7.2 4.8 5.2 87 0.9 ENE 7 9 4 5 - - -
28/02:00am 6.8 4.5 4.8 87 0.9 E 6 7 3 4 - - -
28/01:30am 7.2 5.0 5.2 87 0.9 ENE 6 11 3 6 - - -
28/01:00am 7.3 5.1 5.3 87 0.9 ENE 6 7 3 4 - - -
28/12:30am 7.7 6.0 5.8 88 0.9 E 4 6 2 3 - - -
28/12:00am 7.9 5.3 6.0 88 0.9 E 9 13 5 7 - - -
 
Date/Time
EST
Temp
°C
App
Temp
°C
Dew
Point
°C
Rel
Hum
%
Delta-T
°C
Wind Press
QNH
hPa
Press
MSL
hPa
Rain since
9am
mm
Dir  Spd
km/h
Gust
km/h
Spd
kts
Gust
kts
27/11:30pm 7.9 5.7 6.0 88 0.9 E 7 9 4 5 - - -
27/11:00pm 7.9 5.8 5.9 87 0.9 E 6 9 3 5 - - -
27/10:30pm 10.3 7.8 8.4 88 0.9 N 11 20 6 11 - - -
27/10:00pm 8.2 7.4 6.7 90 0.7 CALM 0 0 0 0 - - -
27/09:30pm 8.3 6.8 6.8 90 0.7 E 4 6 2 3 - - -
27/09:00pm 8.3 6.4 6.8 90 0.7 ESE 6 9 3 5 - - -
27/08:30pm 9.0 6.7 7.6 91 0.7 ENE 9 13 5 7 - - -
27/08:00pm 8.8 6.8 7.3 90 0.7 E 7 11 4 6 - - -
27/07:30pm 8.7 6.7 7.2 90 0.7 E 7 13 4 7 - - -
27/07:00pm 8.8 6.9 6.9 88 0.9 E 6 7 3 4 - - -
27/06:30pm 10.4 7.5 8.3 87 1.0 N 13 17 7 9 - - -
27/06:00pm 11.1 8.3 8.7 85 1.2 NNW 13 17 7 9 - - -
27/05:30pm 11.0 8.2 8.6 85 1.2 NNW 13 17 7 9 - - -
27/05:00pm 11.0 7.8 8.4 84 1.3 NNW 15 17 8 9 - - -
27/04:30pm 11.0 7.8 8.4 84 1.3 NW 15 20 8 11 - - -
27/04:00pm 10.8 7.5 8.2 84 1.3 NW 15 19 8 10 - - -
27/03:30pm 10.7 7.4 8.1 84 1.3 NW 15 19 8 10 - - -
27/03:00pm 10.5 6.4 7.7 83 1.3 WNW 19 22 10 12 - - -
27/02:30pm 10.3 6.2 7.7 84 1.2 WNW 19 22 10 12 - - -
27/02:00pm 9.7 5.8 7.3 85 1.1 NNW 17 20 9 11 - - -
27/01:30pm 9.5 6.4 7.1 85 1.1 NW 13 19 7 10 - - -
27/01:00pm 9.1 5.4 6.5 84 1.2 NW 15 17 8 9 - - -
27/12:30pm 9.1 5.0 6.2 82 1.3 NW 17 20 9 11 - - -
27/12:00pm 9.4 5.3 6.3 81 1.4 NNW 17 20 9 11 - - -
27/11:30am 9.3 5.2 6.2 81 1.4 N 17 20 9 11 - - -
27/11:00am 9.0 4.5 5.9 81 1.4 N 19 22 10 12 - - -
27/10:30am 8.6 4.1 5.9 83 1.2 N 19 24 10 13 - - -
27/10:00am 8.0 3.4 5.5 84 1.1 N 19 22 10 12 - - -
27/09:30am 8.3 3.5 5.8 84 1.1 N 20 26 11 14 - - -
27/09:00am 8.1 3.3 5.4 83 1.2 N 20 24 11 13 - - -
27/08:30am 7.5 4.7 5.0 84 1.1 NNE 9 20 5 11 - - -
27/08:00am 7.3 4.7 4.3 81 1.3 NE 7 13 4 7 - - -
27/07:30am 7.7 4.7 4.3 79 1.5 NE 9 15 5 8 - - -
27/07:00am 8.7 3.8 5.1 78 1.6 N 20 26 11 14 - - -
27/06:30am 8.6 3.6 4.8 77 1.7 N 20 24 11 13 - - -
27/06:00am 8.3 3.5 4.5 77 1.7 N 19 24 10 13 - - -
27/05:30am 8.4 3.0 4.6 77 1.7 N 22 26 12 14 - - -
27/05:00am 8.4 3.0 4.6 77 1.7 N 22 28 12 15 - - -
27/04:30am 8.2 2.4 4.6 78 1.6 N 24 28 13 15 - - -
27/04:00am 8.2 2.5 4.8 79 1.5 N 24 28 13 15 - - -
27/03:30am 8.1 2.4 4.9 80 1.4 N 24 32 13 17 - - -
27/03:00am 8.1 2.4 4.9 80 1.4 N 24 30 13 16 - - -
27/02:30am 7.8 2.0 4.6 80 1.4 N 24 32 13 17 - - -
27/02:00am 7.8 2.4 4.7 81 1.4 N 22 28 12 15 - - -
27/01:30am 7.4 2.6 4.4 81 1.3 NNE 19 26 10 14 - - -
27/01:00am 7.7 3.3 4.7 81 1.3 NNE 17 24 9 13 - - -
27/12:30am 7.6 2.7 4.2 79 1.5 NNE 19 26 10 14 - - -
27/12:00am 6.8 3.2 2.9 76 1.6 NE 11 19 6 10 - - -
 
Date/Time
EST
Temp
°C
App
Temp
°C
Dew
Point
°C
Rel
Hum
%
Delta-T
°C
Wind Press
QNH
hPa
Press
MSL
hPa
Rain since
9am
mm
Dir  Spd
km/h
Gust
km/h
Spd
kts
Gust
kts
26/11:30pm 7.9 3.7 3.9 76 1.7 NNE 15 28 8 15 - - -
26/11:00pm 7.1 3.5 2.8 74 1.8 NNE 11 22 6 12 - - -
26/10:30pm 7.3 3.0 3.0 74 1.8 NNE 15 26 8 14 - - -
26/10:00pm 8.7 2.1 4.3 74 1.9 N 28 32 15 17 - - -
26/09:30pm 8.8 2.6 4.4 74 1.9 N 26 33 14 18 - - -
26/09:00pm 8.9 2.3 4.1 72 2.1 N 28 33 15 18 - - -
26/08:30pm 9.0 2.5 4.6 74 1.9 N 28 35 15 19 - - -
26/08:00pm 8.7 2.9 4.3 74 1.9 N 24 30 13 16 - - -
26/07:30pm 8.7 2.8 4.1 73 2.0 N 24 30 13 16 - - -
26/07:00pm 8.9 2.6 3.7 70 2.3 N 26 32 14 17 - - -
26/06:30pm 9.7 4.1 3.2 64 2.8 N 22 28 12 15 - - -
26/06:00pm 9.9 4.0 3.9 66 2.6 NNW 24 30 13 16 - - -
26/05:30pm 10.0 3.9 2.8 61 3.1 NNW 24 28 13 15 - - -
26/05:00pm 10.0 3.9 2.6 60 3.2 NNW 24 28 13 15 - - -
26/04:30pm 10.2 3.7 2.8 60 3.2 N 26 33 14 18 - - -
26/04:00pm 9.8 3.5 3.5 65 2.7 N 26 33 14 18 - - -
26/03:30pm 9.8 3.5 3.5 65 2.7 N 26 32 14 17 - - -

Other Formats:

Comma delimited format used in spreadsheet applications
http://www.bom.gov.au/fwo/IDV60801/IDV60801.94871.axf

JavaScript Object Notation format (JSON) in row-major order
http://www.bom.gov.au/fwo/IDV60801/IDV60801.94871.json